sensor_id;sensor_type;location;lat;lon;timestamp;pressure;altitude;pressure_sealevel;temperature;humidity
60240;BME280;46102;39.012;-7.064;2023-03-19T00:01:11;98860.69;;;10.96;86.07
60240;BME280;46102;39.012;-7.064;2023-03-19T00:03:12;98863.16;;;10.97;86.07
60240;BME280;46102;39.012;-7.064;2023-03-19T00:05:13;98857.78;;;10.92;86.06
60240;BME280;46102;39.012;-7.064;2023-03-19T00:07:14;98862.06;;;10.84;86.40
60240;BME280;46102;39.012;-7.064;2023-03-19T00:09:16;98854.78;;;10.80;86.53
60240;BME280;46102;39.012;-7.064;2023-03-19T00:11:17;98862.34;;;10.74;87.04
60240;BME280;46102;39.012;-7.064;2023-03-19T00:13:18;98865.69;;;10.71;87.23
60240;BME280;46102;39.012;-7.064;2023-03-19T00:15:18;98876.47;;;10.68;87.56
60240;BME280;46102;39.012;-7.064;2023-03-19T00:17:19;98878.84;;;10.60;87.52
60240;BME280;46102;39.012;-7.064;2023-03-19T00:19:20;98879.94;;;10.59;87.96
60240;BME280;46102;39.012;-7.064;2023-03-19T00:21:21;98879.16;;;10.59;87.64
60240;BME280;46102;39.012;-7.064;2023-03-19T00:23:22;98883.81;;;10.58;87.71
60240;BME280;46102;39.012;-7.064;2023-03-19T00:25:23;98883.00;;;10.58;87.39
60240;BME280;46102;39.012;-7.064;2023-03-19T00:27:23;98875.09;;;10.56;87.36
60240;BME280;46102;39.012;-7.064;2023-03-19T00:29:24;98875.69;;;10.53;87.69
60240;BME280;46102;39.012;-7.064;2023-03-19T00:31:27;98878.75;;;10.52;87.70
60240;BME280;46102;39.012;-7.064;2023-03-19T00:33:28;98871.13;;;10.49;87.74
60240;BME280;46102;39.012;-7.064;2023-03-19T00:35:29;98870.94;;;10.45;88.14
60240;BME280;46102;39.012;-7.064;2023-03-19T00:37:30;98869.03;;;10.46;87.91
60240;BME280;46102;39.012;-7.064;2023-03-19T00:39:30;98859.66;;;10.47;87.88
60240;BME280;46102;39.012;-7.064;2023-03-19T00:41:31;98863.84;;;10.44;87.93
60240;BME280;46102;39.012;-7.064;2023-03-19T00:43:33;98859.56;;;10.38;88.31
60240;BME280;46102;39.012;-7.064;2023-03-19T00:45:34;98862.31;;;10.38;88.58
60240;BME280;46102;39.012;-7.064;2023-03-19T00:47:35;98850.88;;;10.36;88.61
60240;BME280;46102;39.012;-7.064;2023-03-19T00:49:36;98852.59;;;10.32;89.11
60240;BME280;46102;39.012;-7.064;2023-03-19T00:51:37;98850.97;;;10.31;89.45
60240;BME280;46102;39.012;-7.064;2023-03-19T00:53:39;98852.09;;;10.30;89.67
60240;BME280;46102;39.012;-7.064;2023-03-19T00:55:41;98865.81;;;10.30;90.63
60240;BME280;46102;39.012;-7.064;2023-03-19T00:57:42;98856.94;;;10.33;90.51
60240;BME280;46102;39.012;-7.064;2023-03-19T00:59:43;98853.41;;;10.32;90.42
60240;BME280;46102;39.012;-7.064;2023-03-19T01:01:44;98855.84;;;10.34;90.63
60240;BME280;46102;39.012;-7.064;2023-03-19T01:03:45;98865.19;;;10.33;90.31
60240;BME280;46102;39.012;-7.064;2023-03-19T01:05:47;98862.75;;;10.31;90.25
60240;BME280;46102;39.012;-7.064;2023-03-19T01:07:49;98859.91;;;10.36;90.17
60240;BME280;46102;39.012;-7.064;2023-03-19T01:09:50;98867.41;;;10.31;90.16
60240;BME280;46102;39.012;-7.064;2023-03-19T01:11:51;98866.38;;;10.27;90.44
60240;BME280;46102;39.012;-7.064;2023-03-19T01:13:52;98874.13;;;10.25;90.28
60240;BME280;46102;39.012;-7.064;2023-03-19T01:15:53;98873.78;;;10.26;89.79
60240;BME280;46102;39.012;-7.064;2023-03-19T01:17:55;98870.66;;;10.19;90.25
60240;BME280;46102;39.012;-7.064;2023-03-19T01:19:56;98877.56;;;10.16;89.97
60240;BME280;46102;39.012;-7.064;2023-03-19T01:21:57;98880.81;;;10.18;90.12
60240;BME280;46102;39.012;-7.064;2023-03-19T01:23:58;98886.22;;;10.10;90.31
60240;BME280;46102;39.012;-7.064;2023-03-19T01:26:00;98887.13;;;10.05;90.70
60240;BME280;46102;39.012;-7.064;2023-03-19T01:28:02;98881.13;;;10.03;90.63
60240;BME280;46102;39.012;-7.064;2023-03-19T01:30:04;98875.94;;;10.01;90.62
60240;BME280;46102;39.012;-7.064;2023-03-19T01:32:28;98885.09;;;9.97;90.64
60240;BME280;46102;39.012;-7.064;2023-03-19T01:34:50;98878.09;;;9.91;91.54
60240;BME280;46102;39.012;-7.064;2023-03-19T01:36:51;98879.81;;;9.87;91.49
60240;BME280;46102;39.012;-7.064;2023-03-19T01:38:58;98877.16;;;9.82;91.57
60240;BME280;46102;39.012;-7.064;2023-03-19T01:40:59;98875.16;;;9.87;91.44
60240;BME280;46102;39.012;-7.064;2023-03-19T01:43:21;98872.81;;;9.80;91.41
60240;BME280;46102;39.012;-7.064;2023-03-19T01:45:30;98870.69;;;9.77;92.05
60240;BME280;46102;39.012;-7.064;2023-03-19T01:47:49;98870.47;;;9.74;92.24
60240;BME280;46102;39.012;-7.064;2023-03-19T01:50:01;98879.31;;;9.71;91.95
60240;BME280;46102;39.012;-7.064;2023-03-19T01:52:03;98870.69;;;9.64;92.34
60240;BME280;46102;39.012;-7.064;2023-03-19T01:54:22;98868.03;;;9.58;92.63
60240;BME280;46102;39.012;-7.064;2023-03-19T01:56:35;98870.88;;;9.67;92.17
60240;BME280;46102;39.012;-7.064;2023-03-19T01:58:53;98870.69;;;9.64;92.81
60240;BME280;46102;39.012;-7.064;2023-03-19T02:01:09;98872.09;;;9.61;92.53
60240;BME280;46102;39.012;-7.064;2023-03-19T02:03:15;98862.13;;;9.51;93.69
60240;BME280;46102;39.012;-7.064;2023-03-19T02:05:25;98869.84;;;9.49;93.30
60240;BME280;46102;39.012;-7.064;2023-03-19T02:07:31;98871.03;;;9.43;94.48
60240;BME280;46102;39.012;-7.064;2023-03-19T02:09:34;98866.81;;;9.51;94.33
60240;BME280;46102;39.012;-7.064;2023-03-19T02:11:35;98866.41;;;9.44;93.84
60240;BME280;46102;39.012;-7.064;2023-03-19T02:13:36;98866.19;;;9.40;94.91
60240;BME280;46102;39.012;-7.064;2023-03-19T02:15:38;98868.53;;;9.47;94.10
60240;BME280;46102;39.012;-7.064;2023-03-19T02:17:40;98854.41;;;9.40;94.41
60240;BME280;46102;39.012;-7.064;2023-03-19T02:21:59;98853.63;;;9.39;94.88
60240;BME280;46102;39.012;-7.064;2023-03-19T02:24:15;98859.38;;;9.37;94.23
60240;BME280;46102;39.012;-7.064;2023-03-19T02:26:29;98852.88;;;9.33;94.11
60240;BME280;46102;39.012;-7.064;2023-03-19T02:28:38;98851.78;;;9.34;94.10
60240;BME280;46102;39.012;-7.064;2023-03-19T02:30:43;98851.34;;;9.41;94.22
60240;BME280;46102;39.012;-7.064;2023-03-19T02:32:45;98851.69;;;9.40;93.56
60240;BME280;46102;39.012;-7.064;2023-03-19T02:34:47;98849.34;;;9.33;94.05
60240;BME280;46102;39.012;-7.064;2023-03-19T02:36:51;98854.00;;;9.32;93.91
60240;BME280;46102;39.012;-7.064;2023-03-19T02:38:55;98850.44;;;9.32;93.85
60240;BME280;46102;39.012;-7.064;2023-03-19T02:41:01;98845.34;;;9.25;94.16
60240;BME280;46102;39.012;-7.064;2023-03-19T02:43:03;98849.72;;;9.26;94.39
60240;BME280;46102;39.012;-7.064;2023-03-19T02:45:05;98838.78;;;9.26;94.43
60240;BME280;46102;39.012;-7.064;2023-03-19T02:47:06;98838.16;;;9.29;94.42
60240;BME280;46102;39.012;-7.064;2023-03-19T02:49:07;98829.25;;;9.24;94.75
60240;BME280;46102;39.012;-7.064;2023-03-19T02:51:08;98825.47;;;9.20;94.75
60240;BME280;46102;39.012;-7.064;2023-03-19T02:53:09;98827.41;;;9.19;94.86
60240;BME280;46102;39.012;-7.064;2023-03-19T02:55:10;98819.19;;;9.19;94.60
60240;BME280;46102;39.012;-7.064;2023-03-19T02:57:11;98823.44;;;9.11;95.45
60240;BME280;46102;39.012;-7.064;2023-03-19T02:59:12;98821.06;;;9.05;95.36
60240;BME280;46102;39.012;-7.064;2023-03-19T03:01:13;98820.88;;;9.01;95.95
60240;BME280;46102;39.012;-7.064;2023-03-19T03:03:13;98819.19;;;9.05;95.30
60240;BME280;46102;39.012;-7.064;2023-03-19T03:05:14;98815.31;;;9.06;95.09
60240;BME280;46102;39.012;-7.064;2023-03-19T03:07:15;98814.59;;;9.01;95.88
60240;BME280;46102;39.012;-7.064;2023-03-19T03:09:16;98819.47;;;9.04;95.22
60240;BME280;46102;39.012;-7.064;2023-03-19T03:11:17;98821.28;;;8.94;96.23
60240;BME280;46102;39.012;-7.064;2023-03-19T03:13:18;98816.69;;;8.90;96.43
60240;BME280;46102;39.012;-7.064;2023-03-19T03:15:19;98815.97;;;8.84;96.21
60240;BME280;46102;39.012;-7.064;2023-03-19T03:17:21;98806.66;;;8.85;96.14
60240;BME280;46102;39.012;-7.064;2023-03-19T03:19:22;98817.50;;;8.90;95.88
60240;BME280;46102;39.012;-7.064;2023-03-19T03:21:23;98821.44;;;8.84;95.92
60240;BME280;46102;39.012;-7.064;2023-03-19T03:23:23;98810.28;;;8.81;95.97
60240;BME280;46102;39.012;-7.064;2023-03-19T03:25:24;98814.22;;;8.74;96.33
60240;BME280;46102;39.012;-7.064;2023-03-19T03:27:25;98815.81;;;8.75;96.61
60240;BME280;46102;39.012;-7.064;2023-03-19T03:29:26;98810.44;;;8.70;96.23
60240;BME280;46102;39.012;-7.064;2023-03-19T03:31:27;98820.88;;;8.68;95.99
60240;BME280;46102;39.012;-7.064;2023-03-19T03:33:29;98821.09;;;8.72;97.13
60240;BME280;46102;39.012;-7.064;2023-03-19T03:35:30;98814.88;;;8.66;96.57
60240;BME280;46102;39.012;-7.064;2023-03-19T03:37:31;98807.47;;;8.67;96.11
60240;BME280;46102;39.012;-7.064;2023-03-19T03:39:32;98799.09;;;8.63;96.62
60240;BME280;46102;39.012;-7.064;2023-03-19T03:41:33;98819.84;;;8.64;95.57
60240;BME280;46102;39.012;-7.064;2023-03-19T03:43:35;98816.00;;;8.65;96.10
60240;BME280;46102;39.012;-7.064;2023-03-19T03:45:36;98818.13;;;8.68;96.01
60240;BME280;46102;39.012;-7.064;2023-03-19T03:47:37;98815.69;;;8.67;95.37
60240;BME280;46102;39.012;-7.064;2023-03-19T03:49:40;98814.88;;;8.66;95.31
60240;BME280;46102;39.012;-7.064;2023-03-19T03:51:41;98805.25;;;8.69;95.01
60240;BME280;46102;39.012;-7.064;2023-03-19T03:53:42;98806.38;;;8.68;95.00
60240;BME280;46102;39.012;-7.064;2023-03-19T03:55:44;98800.91;;;8.68;94.79
60240;BME280;46102;39.012;-7.064;2023-03-19T03:57:45;98802.63;;;8.64;93.87
60240;BME280;46102;39.012;-7.064;2023-03-19T03:59:46;98800.69;;;8.64;94.50
60240;BME280;46102;39.012;-7.064;2023-03-19T04:01:47;98804.03;;;8.61;94.71
60240;BME280;46102;39.012;-7.064;2023-03-19T04:03:47;98806.47;;;8.63;93.90
60240;BME280;46102;39.012;-7.064;2023-03-19T04:05:49;98812.00;;;8.58;94.51
60240;BME280;46102;39.012;-7.064;2023-03-19T04:07:53;98814.47;;;8.59;93.62
60240;BME280;46102;39.012;-7.064;2023-03-19T04:09:56;98810.63;;;8.60;93.20
60240;BME280;46102;39.012;-7.064;2023-03-19T04:11:57;98808.75;;;8.55;93.75
60240;BME280;46102;39.012;-7.064;2023-03-19T04:13:58;98816.47;;;8.53;93.84
60240;BME280;46102;39.012;-7.064;2023-03-19T04:15:59;98803.59;;;8.54;92.77
60240;BME280;46102;39.012;-7.064;2023-03-19T04:18:00;98807.75;;;8.51;93.06
60240;BME280;46102;39.012;-7.064;2023-03-19T04:20:02;98811.56;;;8.50;93.01
60240;BME280;46102;39.012;-7.064;2023-03-19T04:22:04;98813.00;;;8.48;92.50
60240;BME280;46102;39.012;-7.064;2023-03-19T04:24:06;98810.03;;;8.44;92.66
60240;BME280;46102;39.012;-7.064;2023-03-19T04:26:07;98813.06;;;8.43;93.18
60240;BME280;46102;39.012;-7.064;2023-03-19T04:28:08;98809.28;;;8.39;92.79
60240;BME280;46102;39.012;-7.064;2023-03-19T04:30:10;98819.97;;;8.35;92.79
60240;BME280;46102;39.012;-7.064;2023-03-19T04:32:12;98810.16;;;8.34;93.10
60240;BME280;46102;39.012;-7.064;2023-03-19T04:34:13;98817.03;;;8.31;92.44
60240;BME280;46102;39.012;-7.064;2023-03-19T04:36:14;98822.78;;;8.30;92.49
60240;BME280;46102;39.012;-7.064;2023-03-19T04:38:21;98814.59;;;8.30;93.08
60240;BME280;46102;39.012;-7.064;2023-03-19T04:40:21;98824.13;;;8.32;92.05
60240;BME280;46102;39.012;-7.064;2023-03-19T04:42:24;98819.97;;;8.35;91.81
60240;BME280;46102;39.012;-7.064;2023-03-19T04:44:37;98820.56;;;8.32;92.02
60240;BME280;46102;39.012;-7.064;2023-03-19T04:46:38;98828.19;;;8.35;92.24
60240;BME280;46102;39.012;-7.064;2023-03-19T04:48:39;98819.16;;;8.34;92.35
60240;BME280;46102;39.012;-7.064;2023-03-19T04:50:40;98827.28;;;8.40;92.17
60240;BME280;46102;39.012;-7.064;2023-03-19T04:52:41;98831.69;;;8.41;91.19
60240;BME280;46102;39.012;-7.064;2023-03-19T04:54:42;98832.25;;;8.38;91.75
60240;BME280;46102;39.012;-7.064;2023-03-19T04:56:42;98832.63;;;8.31;91.42
60240;BME280;46102;39.012;-7.064;2023-03-19T04:58:44;98831.81;;;8.30;91.88
60240;BME280;46102;39.012;-7.064;2023-03-19T05:00:45;98832.41;;;8.27;91.72
60240;BME280;46102;39.012;-7.064;2023-03-19T05:02:52;98840.59;;;8.27;92.05
60240;BME280;46102;39.012;-7.064;2023-03-19T05:04:52;98831.28;;;8.28;91.45
60240;BME280;46102;39.012;-7.064;2023-03-19T05:06:53;98838.38;;;8.29;91.71
60240;BME280;46102;39.012;-7.064;2023-03-19T05:08:54;98831.28;;;8.28;91.89
60240;BME280;46102;39.012;-7.064;2023-03-19T05:10:56;98832.13;;;8.29;91.94
60240;BME280;46102;39.012;-7.064;2023-03-19T05:13:03;98837.34;;;8.25;92.44
60240;BME280;46102;39.012;-7.064;2023-03-19T05:15:04;98841.25;;;8.19;92.46
60240;BME280;46102;39.012;-7.064;2023-03-19T05:17:12;98838.31;;;8.16;92.32
60240;BME280;46102;39.012;-7.064;2023-03-19T05:19:27;98836.97;;;8.13;92.71
60240;BME280;46102;39.012;-7.064;2023-03-19T05:21:28;98828.03;;;8.07;93.12
60240;BME280;46102;39.012;-7.064;2023-03-19T05:23:30;98829.66;;;8.08;93.26
60240;BME280;46102;39.012;-7.064;2023-03-19T05:25:38;98825.81;;;8.09;92.91
60240;BME280;46102;39.012;-7.064;2023-03-19T05:27:42;98836.16;;;8.12;93.17
60240;BME280;46102;39.012;-7.064;2023-03-19T05:29:49;98844.88;;;8.14;92.95
60240;BME280;46102;39.012;-7.064;2023-03-19T05:32:01;98842.97;;;8.15;92.45
60240;BME280;46102;39.012;-7.064;2023-03-19T05:34:04;98842.72;;;8.11;92.14
60240;BME280;46102;39.012;-7.064;2023-03-19T05:36:06;98843.25;;;8.13;92.47
60240;BME280;46102;39.012;-7.064;2023-03-19T05:38:32;98838.84;;;8.18;91.88
60240;BME280;46102;39.012;-7.064;2023-03-19T05:40:39;98851.63;;;8.22;91.62
60240;BME280;46102;39.012;-7.064;2023-03-19T05:42:53;98846.88;;;8.28;90.37
60240;BME280;46102;39.012;-7.064;2023-03-19T05:44:57;98844.38;;;8.31;90.80
60240;BME280;46102;39.012;-7.064;2023-03-19T05:47:00;98854.44;;;8.36;89.89
60240;BME280;46102;39.012;-7.064;2023-03-19T05:49:05;98847.63;;;8.33;88.76
60240;BME280;46102;39.012;-7.064;2023-03-19T05:51:06;98860.25;;;8.29;88.16
60240;BME280;46102;39.012;-7.064;2023-03-19T05:53:11;98849.91;;;8.26;88.13
60240;BME280;46102;39.012;-7.064;2023-03-19T05:55:17;98849.69;;;8.23;88.36
60240;BME280;46102;39.012;-7.064;2023-03-19T05:57:20;98857.06;;;8.22;87.83
60240;BME280;46102;39.012;-7.064;2023-03-19T05:59:35;98856.25;;;8.22;88.56
60240;BME280;46102;39.012;-7.064;2023-03-19T06:01:52;98853.75;;;8.25;88.13
60240;BME280;46102;39.012;-7.064;2023-03-19T06:03:53;98857.59;;;8.24;87.75
60240;BME280;46102;39.012;-7.064;2023-03-19T06:05:54;98854.03;;;8.24;87.88
60240;BME280;46102;39.012;-7.064;2023-03-19T06:08:06;98860.69;;;8.18;87.43
60240;BME280;46102;39.012;-7.064;2023-03-19T06:10:29;98868.66;;;8.14;87.36
60240;BME280;46102;39.012;-7.064;2023-03-19T06:12:33;98862.66;;;8.12;86.90
60240;BME280;46102;39.012;-7.064;2023-03-19T06:14:43;98868.13;;;8.12;86.72
60240;BME280;46102;39.012;-7.064;2023-03-19T06:17:18;98870.88;;;8.12;86.36
60240;BME280;46102;39.012;-7.064;2023-03-19T06:19:21;98865.69;;;8.10;86.21
60240;BME280;46102;39.012;-7.064;2023-03-19T06:21:22;98869.78;;;8.13;86.07
60240;BME280;46102;39.012;-7.064;2023-03-19T06:23:25;98870.59;;;8.13;86.01
60240;BME280;46102;39.012;-7.064;2023-03-19T06:25:26;98872.19;;;8.14;85.88
60240;BME280;46102;39.012;-7.064;2023-03-19T06:27:27;98869.19;;;8.16;85.64
60240;BME280;46102;39.012;-7.064;2023-03-19T06:29:38;98876.84;;;8.14;85.38
60240;BME280;46102;39.012;-7.064;2023-03-19T06:31:55;98876.41;;;8.07;85.52
60240;BME280;46102;39.012;-7.064;2023-03-19T06:34:06;98877.00;;;8.04;85.45
60240;BME280;46102;39.012;-7.064;2023-03-19T06:36:15;98884.97;;;8.00;85.10
60240;BME280;46102;39.012;-7.064;2023-03-19T06:38:17;98894.84;;;7.96;85.54
60240;BME280;46102;39.012;-7.064;2023-03-19T06:40:18;98888.56;;;7.96;85.48
60240;BME280;46102;39.012;-7.064;2023-03-19T06:42:19;98887.75;;;7.95;85.80
60240;BME280;46102;39.012;-7.064;2023-03-19T06:44:21;98896.69;;;8.01;85.01
60240;BME280;46102;39.012;-7.064;2023-03-19T06:46:21;98903.22;;;8.05;84.52
60240;BME280;46102;39.012;-7.064;2023-03-19T06:48:22;98902.41;;;8.04;84.33
60240;BME280;46102;39.012;-7.064;2023-03-19T06:50:23;98904.00;;;8.05;83.93
60240;BME280;46102;39.012;-7.064;2023-03-19T06:52:24;98907.00;;;8.09;83.61
60240;BME280;46102;39.012;-7.064;2023-03-19T06:54:25;98919.50;;;8.15;84.08
60240;BME280;46102;39.012;-7.064;2023-03-19T06:56:25;98928.44;;;8.21;83.94
60240;BME280;46102;39.012;-7.064;2023-03-19T06:58:26;98928.91;;;8.04;84.15
60240;BME280;46102;39.012;-7.064;2023-03-19T07:00:27;98936.94;;;7.95;84.36
60240;BME280;46102;39.012;-7.064;2023-03-19T07:02:28;98932.16;;;7.82;85.47
60240;BME280;46102;39.012;-7.064;2023-03-19T07:04:29;98935.75;;;7.77;86.07
60240;BME280;46102;39.012;-7.064;2023-03-19T07:06:30;98932.16;;;7.82;86.32
60240;BME280;46102;39.012;-7.064;2023-03-19T07:08:31;98930.97;;;7.88;85.69
60240;BME280;46102;39.012;-7.064;2023-03-19T07:10:31;98940.19;;;7.97;86.35
60240;BME280;46102;39.012;-7.064;2023-03-19T07:12:32;98931.66;;;8.04;86.68
60240;BME280;46102;39.012;-7.064;2023-03-19T07:14:33;98936.97;;;8.14;87.13
60240;BME280;46102;39.012;-7.064;2023-03-19T07:16:34;98944.22;;;8.24;86.18
60240;BME280;46102;39.012;-7.064;2023-03-19T07:18:34;98952.91;;;8.31;86.59
60240;BME280;46102;39.012;-7.064;2023-03-19T07:20:35;98963.44;;;8.43;86.43
60240;BME280;46102;39.012;-7.064;2023-03-19T07:22:36;98966.00;;;8.58;85.40
60240;BME280;46102;39.012;-7.064;2023-03-19T07:24:37;98960.88;;;8.70;85.64
60240;BME280;46102;39.012;-7.064;2023-03-19T07:26:38;98959.03;;;8.85;85.44
60240;BME280;46102;39.012;-7.064;2023-03-19T07:28:38;98960.47;;;9.01;84.01
60240;BME280;46102;39.012;-7.064;2023-03-19T07:30:39;98955.94;;;9.10;83.76
60240;BME280;46102;39.012;-7.064;2023-03-19T07:32:40;98956.22;;;9.28;83.29
60240;BME280;46102;39.012;-7.064;2023-03-19T07:34:42;98958.22;;;9.55;82.17
60240;BME280;46102;39.012;-7.064;2023-03-19T07:36:43;98958.28;;;9.83;80.98
60240;BME280;46102;39.012;-7.064;2023-03-19T07:38:44;98954.75;;;10.10;79.77
60240;BME280;46102;39.012;-7.064;2023-03-19T07:40:44;98955.16;;;10.31;78.83
60240;BME280;46102;39.012;-7.064;2023-03-19T07:42:45;98958.72;;;10.45;78.43
60240;BME280;46102;39.012;-7.064;2023-03-19T07:44:46;98954.81;;;10.60;77.86
60240;BME280;46102;39.012;-7.064;2023-03-19T07:46:47;98960.91;;;10.71;77.15
60240;BME280;46102;39.012;-7.064;2023-03-19T07:48:48;98964.75;;;10.83;77.06
60240;BME280;46102;39.012;-7.064;2023-03-19T07:50:50;98964.59;;;11.02;76.48
60240;BME280;46102;39.012;-7.064;2023-03-19T07:52:51;98969.00;;;11.26;75.66
60240;BME280;46102;39.012;-7.064;2023-03-19T07:54:52;98973.63;;;11.39;75.20
60240;BME280;46102;39.012;-7.064;2023-03-19T07:56:53;98974.66;;;11.52;74.96
60240;BME280;46102;39.012;-7.064;2023-03-19T07:58:54;98983.66;;;11.66;74.63
60240;BME280;46102;39.012;-7.064;2023-03-19T08:00:55;98977.56;;;11.78;73.78
60240;BME280;46102;39.012;-7.064;2023-03-19T08:02:56;98981.88;;;11.93;73.39
60240;BME280;46102;39.012;-7.064;2023-03-19T08:04:56;98978.56;;;12.05;73.11
60240;BME280;46102;39.012;-7.064;2023-03-19T08:06:58;98983.78;;;12.24;72.81
60240;BME280;46102;39.012;-7.064;2023-03-19T08:08:58;98979.97;;;12.42;72.03
60240;BME280;46102;39.012;-7.064;2023-03-19T08:11:00;98982.47;;;12.61;71.41
60240;BME280;46102;39.012;-7.064;2023-03-19T08:13:01;98977.81;;;12.79;70.60
60240;BME280;46102;39.012;-7.064;2023-03-19T08:15:03;98975.72;;;13.02;69.25
60240;BME280;46102;39.012;-7.064;2023-03-19T08:17:04;98989.50;;;13.20;68.38
60240;BME280;46102;39.012;-7.064;2023-03-19T08:19:05;98977.88;;;13.40;66.96
60240;BME280;46102;39.012;-7.064;2023-03-19T08:21:06;98981.22;;;13.63;65.22
60240;BME280;46102;39.012;-7.064;2023-03-19T08:23:08;98985.56;;;13.90;64.00
60240;BME280;46102;39.012;-7.064;2023-03-19T08:25:09;98975.59;;;14.07;63.03
60240;BME280;46102;39.012;-7.064;2023-03-19T08:27:10;98974.56;;;14.20;62.01
60240;BME280;46102;39.012;-7.064;2023-03-19T08:29:11;98977.06;;;14.43;61.52
60240;BME280;46102;39.012;-7.064;2023-03-19T08:31:12;98975.69;;;14.66;61.23
60240;BME280;46102;39.012;-7.064;2023-03-19T08:33:14;98984.78;;;14.88;59.49
60240;BME280;46102;39.012;-7.064;2023-03-19T08:35:15;98980.44;;;15.08;58.53
60240;BME280;46102;39.012;-7.064;2023-03-19T08:37:16;98978.56;;;15.20;57.84
60240;BME280;46102;39.012;-7.064;2023-03-19T08:39:17;98991.81;;;15.27;57.20
60240;BME280;46102;39.012;-7.064;2023-03-19T08:41:18;98987.06;;;15.49;57.01
60240;BME280;46102;39.012;-7.064;2023-03-19T08:43:18;98985.97;;;15.62;55.99
60240;BME280;46102;39.012;-7.064;2023-03-19T08:45:19;98993.72;;;15.69;55.35
60240;BME280;46102;39.012;-7.064;2023-03-19T08:47:20;98987.91;;;15.82;55.32
60240;BME280;46102;39.012;-7.064;2023-03-19T08:49:23;98989.09;;;15.94;54.75
60240;BME280;46102;39.012;-7.064;2023-03-19T08:51:24;98991.09;;;16.06;54.15
60240;BME280;46102;39.012;-7.064;2023-03-19T08:53:26;98989.63;;;16.20;53.88
60240;BME280;46102;39.012;-7.064;2023-03-19T08:55:27;98988.59;;;16.37;53.30
60240;BME280;46102;39.012;-7.064;2023-03-19T08:57:29;98989.28;;;16.47;53.12
60240;BME280;46102;39.012;-7.064;2023-03-19T08:59:30;98982.13;;;16.58;52.94
60240;BME280;46102;39.012;-7.064;2023-03-19T09:01:31;98985.81;;;16.74;52.35
60240;BME280;46102;39.012;-7.064;2023-03-19T09:03:32;98984.22;;;16.98;51.43
60240;BME280;46102;39.012;-7.064;2023-03-19T09:05:34;98981.66;;;17.05;51.41
60240;BME280;46102;39.012;-7.064;2023-03-19T09:07:35;98968.47;;;17.14;50.58
60240;BME280;46102;39.012;-7.064;2023-03-19T09:09:36;98977.31;;;17.20;50.21
60240;BME280;46102;39.012;-7.064;2023-03-19T09:11:37;98981.47;;;17.26;50.09
60240;BME280;46102;39.012;-7.064;2023-03-19T09:13:37;98980.63;;;17.38;49.63
60240;BME280;46102;39.012;-7.064;2023-03-19T09:15:39;98979.06;;;17.53;49.52
60240;BME280;46102;39.012;-7.064;2023-03-19T09:17:40;98984.22;;;17.66;49.53
60240;BME280;46102;39.012;-7.064;2023-03-19T09:19:41;98975.59;;;17.84;49.23
60240;BME280;46102;39.012;-7.064;2023-03-19T09:21:42;98974.44;;;18.01;48.58
60240;BME280;46102;39.012;-7.064;2023-03-19T09:23:44;98977.50;;;18.12;47.94
60240;BME280;46102;39.012;-7.064;2023-03-19T09:25:45;98984.59;;;18.25;47.92
60240;BME280;46102;39.012;-7.064;2023-03-19T09:27:46;98980.84;;;18.33;47.45
60240;BME280;46102;39.012;-7.064;2023-03-19T09:29:46;98976.53;;;18.36;47.51
60240;BME280;46102;39.012;-7.064;2023-03-19T09:31:47;98987.47;;;18.44;47.65
60240;BME280;46102;39.012;-7.064;2023-03-19T09:33:48;98989.69;;;18.55;47.42
60240;BME280;46102;39.012;-7.064;2023-03-19T09:35:51;98988.53;;;18.56;46.85
60240;BME280;46102;39.012;-7.064;2023-03-19T09:37:52;98983.59;;;18.65;46.81
60240;BME280;46102;39.012;-7.064;2023-03-19T09:39:53;98989.59;;;18.67;46.67
60240;BME280;46102;39.012;-7.064;2023-03-19T09:42:09;98986.97;;;18.90;46.77
60240;BME280;46102;39.012;-7.064;2023-03-19T09:44:26;98989.41;;;19.11;46.19
60240;BME280;46102;39.012;-7.064;2023-03-19T09:48:54;98986.44;;;19.39;45.61
60240;BME280;46102;39.012;-7.064;2023-03-19T09:50:58;98983.28;;;19.60;44.43
60240;BME280;46102;39.012;-7.064;2023-03-19T09:53:10;98984.47;;;19.79;44.40
60240;BME280;46102;39.012;-7.064;2023-03-19T09:57:38;98987.59;;;20.20;43.38
60240;BME280;46102;39.012;-7.064;2023-03-19T09:59:39;98995.41;;;20.10;43.16
60240;BME280;46102;39.012;-7.064;2023-03-19T10:01:44;98994.47;;;20.03;42.69
60240;BME280;46102;39.012;-7.064;2023-03-19T10:06:13;98991.22;;;19.78;42.70
60240;BME280;46102;39.012;-7.064;2023-03-19T10:15:48;98990.44;;;20.00;42.43
60240;BME280;46102;39.012;-7.064;2023-03-19T10:18:01;98990.03;;;19.98;42.30
60240;BME280;46102;39.012;-7.064;2023-03-19T10:20:07;98990.34;;;20.16;42.39
60240;BME280;46102;39.012;-7.064;2023-03-19T10:22:18;98992.78;;;20.44;42.32
60240;BME280;46102;39.012;-7.064;2023-03-19T10:24:28;98995.28;;;20.49;41.62
60240;BME280;46102;39.012;-7.064;2023-03-19T10:26:33;98998.84;;;20.69;40.86
60240;BME280;46102;39.012;-7.064;2023-03-19T10:28:35;98996.72;;;20.89;40.66
60240;BME280;46102;39.012;-7.064;2023-03-19T10:30:36;98999.72;;;21.04;41.02
60240;BME280;46102;39.012;-7.064;2023-03-19T10:32:42;98993.91;;;21.16;39.51
60240;BME280;46102;39.012;-7.064;2023-03-19T10:34:48;99000.09;;;21.02;38.87
60240;BME280;46102;39.012;-7.064;2023-03-19T10:36:59;99000.09;;;21.02;38.69
60240;BME280;46102;39.012;-7.064;2023-03-19T10:39:00;99005.94;;;21.20;39.23
60240;BME280;46102;39.012;-7.064;2023-03-19T10:43:24;99002.41;;;21.53;37.61
60240;BME280;46102;39.012;-7.064;2023-03-19T10:45:33;99012.59;;;21.72;37.65
60240;BME280;46102;39.012;-7.064;2023-03-19T10:47:38;99014.97;;;21.70;37.03
60240;BME280;46102;39.012;-7.064;2023-03-19T10:49:39;99004.63;;;21.71;37.73
60240;BME280;46102;39.012;-7.064;2023-03-19T10:51:47;99015.56;;;21.87;37.38
60240;BME280;46102;39.012;-7.064;2023-03-19T10:53:51;99012.78;;;21.87;37.19
60240;BME280;46102;39.012;-7.064;2023-03-19T10:55:58;99007.72;;;21.99;37.55
60240;BME280;46102;39.012;-7.064;2023-03-19T10:58:06;99000.66;;;22.09;37.52
60240;BME280;46102;39.012;-7.064;2023-03-19T11:00:21;99008.72;;;22.18;37.17
60240;BME280;46102;39.012;-7.064;2023-03-19T11:02:24;98998.53;;;22.36;36.83
60240;BME280;46102;39.012;-7.064;2023-03-19T11:04:30;99003.41;;;22.43;36.53
60240;BME280;46102;39.012;-7.064;2023-03-19T11:06:32;99002.13;;;22.37;36.66
60240;BME280;46102;39.012;-7.064;2023-03-19T11:08:35;98997.38;;;22.00;37.15